Aikou Maru No.28 — JD2869 — position and weather

sailwx.info

Track history (hours):
 
Tides and Currents Weather Stations Pressure Air Temp Water Temp Dewpoint Dewpoint Depression Visibility Wind Speed Wind Dir Waves Ship Positions

Aikou Maru No.28

Last reported at 2018-Jun-22 02:50 UTC. Time now 2018-Jun-22 03:47 UTC.
Position N 34°06' E 134°46'.

Length 75 m; draft 4 m.

Type: Ship (hazmat cat B). MMSI: 431000846.

Date/timePositionNaut miles runAvg speedWind from/ knotsBaromVisibWave heightAir tempDewpointWater temp
2018-Jun-22 02:50N 34°06' E 134°46'411.8
2018-Jun-22 02:30N 34°03' E 134°48'811.8
2018-Jun-22 01:50N 33°57' E 134°55'411.6
2018-Jun-22 01:30N 33°54' E 134°57'  
2018-Jun-16 10:14N 33°56' E 134°57'611.1
2018-Jun-16 09:42N 34°00' E 134°52'311.1
2018-Jun-16 09:24N 34°03' E 134°49'2111.3
2018-Jun-16 07:32N 34°18' E 134°31'011.6
2018-Jun-16 07:30N 34°18' E 134°31'611.7
2018-Jun-16 06:58N 34°20' E 134°24'1 0.0
2018-Jun-15 01:17N 34°21' E 134°25'1512.6
2018-Jun-15 00:08N 34°13' E 134°40'612.7
2018-Jun-14 23:39N 34°08' E 134°45'212.0
2018-Jun-14 23:30N 34°07' E 134°46'712.0
2018-Jun-14 22:55N 34°01' E 134°51'512.4
2018-Jun-14 22:30N 33°57' E 134°55'712.1
2018-Jun-14 21:58N 33°52' E 134°60'3 0.1
2018-Jun-13 04:43N 33°54' E 134°57'911.8
2018-Jun-13 03:57N 34°01' E 134°50'1412.8
2018-Jun-13 02:53N 34°12' E 134°40'713.4
2018-Jun-13 02:22N 34°17' E 134°34'412.0
2018-Jun-13 02:00N 34°19' E 134°29'612.2
2018-Jun-13 01:30N 34°21' E 134°23'  
Track history (hours):
 
Tides and Currents Weather Stations Pressure Air Temp Water Temp Dewpoint Dewpoint Depression Visibility Wind Speed Wind Dir Waves Ship Positions

Aikou Maru No.28

Last reported at 2018-Jun-22 02:50 UTC. Time now 2018-Jun-22 03:47 UTC.
Position N 34°06' E 134°46'.

Length 75 m; draft 4 m.

Type: Ship (hazmat cat B). MMSI: 431000846.

Date/timePositionNaut miles runAvg speedWind from/ knotsBaromVisibWave heightAir tempDewpointWater temp
2018-Jun-22 02:50N 34°06' E 134°46'411.8
2018-Jun-22 02:30N 34°03' E 134°48'811.8
2018-Jun-22 01:50N 33°57' E 134°55'411.6
2018-Jun-22 01:30N 33°54' E 134°57'  
2018-Jun-16 10:14N 33°56' E 134°57'611.1
2018-Jun-16 09:42N 34°00' E 134°52'311.1
2018-Jun-16 09:24N 34°03' E 134°49'2111.3
2018-Jun-16 07:32N 34°18' E 134°31'011.6
2018-Jun-16 07:30N 34°18' E 134°31'611.7
2018-Jun-16 06:58N 34°20' E 134°24'1 0.0
2018-Jun-15 01:17N 34°21' E 134°25'1512.6
2018-Jun-15 00:08N 34°13' E 134°40'612.7
2018-Jun-14 23:39N 34°08' E 134°45'212.0
2018-Jun-14 23:30N 34°07' E 134°46'712.0
2018-Jun-14 22:55N 34°01' E 134°51'512.4
2018-Jun-14 22:30N 33°57' E 134°55'712.1
2018-Jun-14 21:58N 33°52' E 134°60'3 0.1
2018-Jun-13 04:43N 33°54' E 134°57'911.8
2018-Jun-13 03:57N 34°01' E 134°50'1412.8
2018-Jun-13 02:53N 34°12' E 134°40'713.4
2018-Jun-13 02:22N 34°17' E 134°34'412.0
2018-Jun-13 02:00N 34°19' E 134°29'612.2
2018-Jun-13 01:30N 34°21' E 134°23'  

Dump ship's entire track history